« 定点 富山空港 2020/1/11 sat | トップページ | 令和2年高岡市消防艇出初式 高岡市 2020/1/16 thu »

2020/01/14

定点 富山空港 2020/1/14 tue

成人式も終わり、従来ならば暖冬といえど、この辺りで雪が降るものだが・・・

RJNT 140000Z 27003KT 9999 FEW020 SCT060 BKN070 05/03 Q1021

20200114_rjnt_00ja55an

20200114_rjnt_01ja55an

ANA313 RJTT-RJNT JA55AN B737-881

20200114_rjnt_02ja6512

JA6512 AS350B3 AKF ↑

20200114_rjnt_03ja6516

JA6516 AS350B3 AKF ↑

20200114_rjnt_04ja55an

20200114_rjnt_05ja55an

ANA316 RJNT-RJTT JA55AN B737-881

RJNT 140100Z VRB02KT 9999 FEW020 SCT050 BKN060 06/03 Q1022

20200114_rjnt_06ja10ym

JA10YM A109SP 富山県ドクターヘリ 八尾事案

20200114_rjnt_07ja76an

20200114_rjnt_08ja76an

ANA315 RJTT-RJNT JA76AN B737-881

RJNT 140200Z VRB02KT 9999 FEW020 BKN060 08/04 Q1021

20200114_rjnt_09ja6516

JA6516 ↓

20200114_rjnt_10ja6516

JA6516 ↑

20200114_rjnt_11ja76an

20200114_rjnt_12ja76an

ANA1181 RJNT-RJCC JA76AN B737-881

RJNT 140400Z 28003KT 9999 FEW020 BKN050 08/03 Q1019

20200114_rjnt_13ja119w

午後からWさんの訓練

20200114_rjnt_14ja119w

JA119W AW139 富山県消防防災

RJNT 140500Z VRB02KT 9999 FEW020 BKN050 BKN060 08/04 Q1019

20200114_rjnt_15ja6516

JA6516 ↑

所要でCSH825の到着は、撮り逃し

20200114_rjnt_16b5801

20200114_rjnt_17b5801

CSH826 RJNT-ZSPD B-5801 B737-76D

20200114_rjnt_18b5801

次回からJALのコードシェアが始まります。

 

|

« 定点 富山空港 2020/1/11 sat | トップページ | 令和2年高岡市消防艇出初式 高岡市 2020/1/16 thu »

富山空港」カテゴリの記事

コメント

コメントを書く



(ウェブ上には掲載しません)


コメントは記事投稿者が公開するまで表示されません。



« 定点 富山空港 2020/1/11 sat | トップページ | 令和2年高岡市消防艇出初式 高岡市 2020/1/16 thu »